sensor_id;sensor_type;location;lat;lon;timestamp;P1;durP1;ratioP1;P2;durP2;ratioP2
3647;SDS011;1840;48.892;15.312;2022-07-01T00:00:22;24.80;;;13.40;;
3647;SDS011;1840;48.892;15.312;2022-07-01T00:02:50;20.50;;;12.73;;
3647;SDS011;1840;48.892;15.312;2022-07-01T00:05:18;22.77;;;14.40;;
3647;SDS011;1840;48.892;15.312;2022-07-01T00:07:46;18.60;;;13.20;;
3647;SDS011;1840;48.892;15.312;2022-07-01T00:10:15;25.40;;;14.17;;
3647;SDS011;1840;48.892;15.312;2022-07-01T00:12:45;21.50;;;13.77;;
3647;SDS011;1840;48.892;15.312;2022-07-01T00:15:14;20.13;;;13.30;;
3647;SDS011;1840;48.892;15.312;2022-07-01T00:17:42;19.53;;;13.00;;
3647;SDS011;1840;48.892;15.312;2022-07-01T00:20:11;27.17;;;13.20;;
3647;SDS011;1840;48.892;15.312;2022-07-01T00:22:39;16.80;;;11.83;;
3647;SDS011;1840;48.892;15.312;2022-07-01T00:25:08;15.70;;;11.97;;
3647;SDS011;1840;48.892;15.312;2022-07-01T00:27:37;22.33;;;13.37;;
3647;SDS011;1840;48.892;15.312;2022-07-01T00:30:08;21.47;;;12.70;;
3647;SDS011;1840;48.892;15.312;2022-07-01T00:32:37;21.07;;;13.20;;
3647;SDS011;1840;48.892;15.312;2022-07-01T00:35:05;20.07;;;12.10;;
3647;SDS011;1840;48.892;15.312;2022-07-01T00:37:35;25.00;;;13.90;;
3647;SDS011;1840;48.892;15.312;2022-07-01T00:40:06;24.03;;;13.40;;
3647;SDS011;1840;48.892;15.312;2022-07-01T00:42:38;18.43;;;13.97;;
3647;SDS011;1840;48.892;15.312;2022-07-01T00:45:08;28.93;;;14.40;;
3647;SDS011;1840;48.892;15.312;2022-07-01T00:47:37;26.10;;;16.47;;
3647;SDS011;1840;48.892;15.312;2022-07-01T00:50:08;25.70;;;16.63;;
3647;SDS011;1840;48.892;15.312;2022-07-01T00:52:38;26.77;;;17.00;;
3647;SDS011;1840;48.892;15.312;2022-07-01T00:55:07;18.00;;;14.30;;
3647;SDS011;1840;48.892;15.312;2022-07-01T00:57:37;25.20;;;17.07;;
3647;SDS011;1840;48.892;15.312;2022-07-01T01:00:10;32.53;;;15.83;;
3647;SDS011;1840;48.892;15.312;2022-07-01T01:02:39;31.57;;;16.83;;
3647;SDS011;1840;48.892;15.312;2022-07-01T01:05:08;26.30;;;15.50;;
3647;SDS011;1840;48.892;15.312;2022-07-01T01:07:36;30.17;;;16.17;;
3647;SDS011;1840;48.892;15.312;2022-07-01T01:10:05;18.40;;;15.13;;
3647;SDS011;1840;48.892;15.312;2022-07-01T01:12:33;21.23;;;15.10;;
3647;SDS011;1840;48.892;15.312;2022-07-01T01:15:01;27.90;;;14.23;;
3647;SDS011;1840;48.892;15.312;2022-07-01T01:17:32;28.33;;;17.57;;
3647;SDS011;1840;48.892;15.312;2022-07-01T01:20:00;25.17;;;15.90;;
3647;SDS011;1840;48.892;15.312;2022-07-01T01:22:29;21.03;;;15.10;;
3647;SDS011;1840;48.892;15.312;2022-07-01T01:24:57;23.40;;;14.47;;
3647;SDS011;1840;48.892;15.312;2022-07-01T01:27:25;18.30;;;13.37;;
3647;SDS011;1840;48.892;15.312;2022-07-01T01:29:53;21.93;;;13.43;;
3647;SDS011;1840;48.892;15.312;2022-07-01T01:32:22;24.93;;;15.97;;
3647;SDS011;1840;48.892;15.312;2022-07-01T01:34:50;33.33;;;16.53;;
3647;SDS011;1840;48.892;15.312;2022-07-01T01:37:17;22.80;;;15.30;;
3647;SDS011;1840;48.892;15.312;2022-07-01T01:39:47;34.80;;;16.30;;
3647;SDS011;1840;48.892;15.312;2022-07-01T01:42:15;21.80;;;14.87;;
3647;SDS011;1840;48.892;15.312;2022-07-01T01:44:43;20.00;;;14.63;;
3647;SDS011;1840;48.892;15.312;2022-07-01T01:47:11;22.33;;;14.40;;
3647;SDS011;1840;48.892;15.312;2022-07-01T01:49:39;23.30;;;15.00;;
3647;SDS011;1840;48.892;15.312;2022-07-01T01:52:07;19.07;;;14.67;;
3647;SDS011;1840;48.892;15.312;2022-07-01T01:54:35;18.97;;;14.40;;
3647;SDS011;1840;48.892;15.312;2022-07-01T01:57:05;19.70;;;14.67;;
3647;SDS011;1840;48.892;15.312;2022-07-01T01:59:33;19.17;;;14.63;;
3647;SDS011;1840;48.892;15.312;2022-07-01T02:02:02;23.63;;;13.73;;
3647;SDS011;1840;48.892;15.312;2022-07-01T02:04:30;27.93;;;17.13;;
3647;SDS011;1840;48.892;15.312;2022-07-01T02:06:58;19.23;;;15.47;;
3647;SDS011;1840;48.892;15.312;2022-07-01T02:09:26;17.93;;;15.20;;
3647;SDS011;1840;48.892;15.312;2022-07-01T02:11:55;23.60;;;15.17;;
3647;SDS011;1840;48.892;15.312;2022-07-01T02:14:25;20.00;;;14.57;;
3647;SDS011;1840;48.892;15.312;2022-07-01T02:16:53;23.27;;;14.90;;
3647;SDS011;1840;48.892;15.312;2022-07-01T02:19:21;22.43;;;15.73;;
3647;SDS011;1840;48.892;15.312;2022-07-01T02:21:49;29.60;;;15.40;;
3647;SDS011;1840;48.892;15.312;2022-07-01T02:24:18;21.50;;;15.53;;
3647;SDS011;1840;48.892;15.312;2022-07-01T02:26:46;20.23;;;14.00;;
3647;SDS011;1840;48.892;15.312;2022-07-01T02:29:14;24.63;;;16.40;;
3647;SDS011;1840;48.892;15.312;2022-07-01T02:31:44;21.73;;;14.43;;
3647;SDS011;1840;48.892;15.312;2022-07-01T02:34:12;26.13;;;15.60;;
3647;SDS011;1840;48.892;15.312;2022-07-01T02:36:40;24.67;;;15.10;;
3647;SDS011;1840;48.892;15.312;2022-07-01T02:39:07;24.33;;;14.13;;
3647;SDS011;1840;48.892;15.312;2022-07-01T02:41:36;21.50;;;13.57;;
3647;SDS011;1840;48.892;15.312;2022-07-01T02:44:24;21.63;;;14.03;;
3647;SDS011;1840;48.892;15.312;2022-07-01T02:46:53;22.80;;;14.83;;
3647;SDS011;1840;48.892;15.312;2022-07-01T02:49:21;27.73;;;15.07;;
3647;SDS011;1840;48.892;15.312;2022-07-01T02:51:49;21.80;;;13.47;;
3647;SDS011;1840;48.892;15.312;2022-07-01T02:54:17;23.63;;;12.67;;
3647;SDS011;1840;48.892;15.312;2022-07-01T02:56:45;23.00;;;14.10;;
3647;SDS011;1840;48.892;15.312;2022-07-01T02:59:13;20.80;;;12.10;;
3647;SDS011;1840;48.892;15.312;2022-07-01T03:01:41;19.60;;;13.67;;
3647;SDS011;1840;48.892;15.312;2022-07-01T03:04:11;26.50;;;12.43;;
3647;SDS011;1840;48.892;15.312;2022-07-01T03:06:39;16.07;;;11.87;;
3647;SDS011;1840;48.892;15.312;2022-07-01T03:09:07;24.43;;;13.97;;
3647;SDS011;1840;48.892;15.312;2022-07-01T03:11:35;21.23;;;12.43;;
3647;SDS011;1840;48.892;15.312;2022-07-01T03:14:04;21.17;;;13.47;;
3647;SDS011;1840;48.892;15.312;2022-07-01T03:16:32;18.00;;;12.17;;
3647;SDS011;1840;48.892;15.312;2022-07-01T03:19:00;24.30;;;12.07;;
3647;SDS011;1840;48.892;15.312;2022-07-01T03:21:30;17.07;;;13.23;;
3647;SDS011;1840;48.892;15.312;2022-07-01T03:23:58;21.73;;;14.73;;
3647;SDS011;1840;48.892;15.312;2022-07-01T03:26:26;26.00;;;14.93;;
3647;SDS011;1840;48.892;15.312;2022-07-01T03:28:56;21.17;;;14.27;;
3647;SDS011;1840;48.892;15.312;2022-07-01T03:31:24;26.53;;;13.70;;
3647;SDS011;1840;48.892;15.312;2022-07-01T03:33:52;28.23;;;13.80;;
3647;SDS011;1840;48.892;15.312;2022-07-01T03:36:20;30.03;;;15.03;;
3647;SDS011;1840;48.892;15.312;2022-07-01T03:38:50;24.07;;;13.10;;
3647;SDS011;1840;48.892;15.312;2022-07-01T03:41:18;24.73;;;14.60;;
3647;SDS011;1840;48.892;15.312;2022-07-01T03:43:46;24.90;;;12.60;;
3647;SDS011;1840;48.892;15.312;2022-07-01T03:46:14;20.57;;;11.83;;
3647;SDS011;1840;48.892;15.312;2022-07-01T03:48:42;21.83;;;12.17;;
3647;SDS011;1840;48.892;15.312;2022-07-01T03:51:10;24.23;;;14.30;;
3647;SDS011;1840;48.892;15.312;2022-07-01T03:53:38;19.03;;;11.50;;
3647;SDS011;1840;48.892;15.312;2022-07-01T03:56:25;21.83;;;11.83;;
3647;SDS011;1840;48.892;15.312;2022-07-01T03:58:53;18.27;;;13.37;;
3647;SDS011;1840;48.892;15.312;2022-07-01T04:01:21;25.57;;;14.07;;
3647;SDS011;1840;48.892;15.312;2022-07-01T04:03:50;24.13;;;13.83;;
3647;SDS011;1840;48.892;15.312;2022-07-01T04:06:18;23.60;;;13.07;;
3647;SDS011;1840;48.892;15.312;2022-07-01T04:08:47;24.03;;;14.20;;
3647;SDS011;1840;48.892;15.312;2022-07-01T04:11:16;22.40;;;12.80;;
3647;SDS011;1840;48.892;15.312;2022-07-01T04:13:46;26.33;;;15.57;;
3647;SDS011;1840;48.892;15.312;2022-07-01T04:16:17;23.33;;;14.90;;
3647;SDS011;1840;48.892;15.312;2022-07-01T04:18:46;22.37;;;14.77;;
3647;SDS011;1840;48.892;15.312;2022-07-01T04:21:14;15.13;;;12.50;;
3647;SDS011;1840;48.892;15.312;2022-07-01T04:24:03;18.83;;;12.90;;
3647;SDS011;1840;48.892;15.312;2022-07-01T04:26:32;27.20;;;13.50;;
3647;SDS011;1840;48.892;15.312;2022-07-01T04:29:05;17.10;;;11.83;;
3647;SDS011;1840;48.892;15.312;2022-07-01T04:31:34;16.83;;;12.37;;
3647;SDS011;1840;48.892;15.312;2022-07-01T04:34:02;22.30;;;12.00;;
3647;SDS011;1840;48.892;15.312;2022-07-01T04:36:31;25.50;;;13.10;;
3647;SDS011;1840;48.892;15.312;2022-07-01T04:39:00;15.90;;;11.97;;
3647;SDS011;1840;48.892;15.312;2022-07-01T04:41:28;24.20;;;12.33;;
3647;SDS011;1840;48.892;15.312;2022-07-01T04:44:15;16.10;;;11.60;;
3647;SDS011;1840;48.892;15.312;2022-07-01T04:46:44;18.13;;;11.30;;
3647;SDS011;1840;48.892;15.312;2022-07-01T04:49:12;16.17;;;9.87;;
3647;SDS011;1840;48.892;15.312;2022-07-01T04:51:40;17.17;;;10.80;;
3647;SDS011;1840;48.892;15.312;2022-07-01T04:54:08;14.87;;;10.00;;
3647;SDS011;1840;48.892;15.312;2022-07-01T04:56:37;15.23;;;10.37;;
3647;SDS011;1840;48.892;15.312;2022-07-01T04:59:10;18.70;;;12.27;;
3647;SDS011;1840;48.892;15.312;2022-07-01T05:01:39;17.50;;;10.57;;
3647;SDS011;1840;48.892;15.312;2022-07-01T05:04:08;15.80;;;8.83;;
3647;SDS011;1840;48.892;15.312;2022-07-01T05:06:37;14.63;;;7.97;;
3647;SDS011;1840;48.892;15.312;2022-07-01T05:09:05;16.03;;;8.73;;
3647;SDS011;1840;48.892;15.312;2022-07-01T05:11:34;20.83;;;7.90;;
3647;SDS011;1840;48.892;15.312;2022-07-01T05:14:02;13.83;;;8.17;;
3647;SDS011;1840;48.892;15.312;2022-07-01T05:16:30;10.50;;;7.63;;
3647;SDS011;1840;48.892;15.312;2022-07-01T05:19:00;12.83;;;7.93;;
3647;SDS011;1840;48.892;15.312;2022-07-01T05:21:46;9.60;;;7.60;;
3647;SDS011;1840;48.892;15.312;2022-07-01T05:24:25;14.23;;;8.00;;
3647;SDS011;1840;48.892;15.312;2022-07-01T05:26:55;11.90;;;8.30;;
3647;SDS011;1840;48.892;15.312;2022-07-01T05:29:24;13.90;;;8.50;;
3647;SDS011;1840;48.892;15.312;2022-07-01T05:31:53;19.00;;;7.10;;
3647;SDS011;1840;48.892;15.312;2022-07-01T05:34:22;15.90;;;6.17;;
3647;SDS011;1840;48.892;15.312;2022-07-01T05:36:50;13.97;;;6.30;;
3647;SDS011;1840;48.892;15.312;2022-07-01T05:39:18;13.20;;;8.60;;
3647;SDS011;1840;48.892;15.312;2022-07-01T05:41:46;11.20;;;7.00;;
3647;SDS011;1840;48.892;15.312;2022-07-01T05:44:14;8.30;;;5.53;;
3647;SDS011;1840;48.892;15.312;2022-07-01T05:46:43;13.40;;;6.67;;
3647;SDS011;1840;48.892;15.312;2022-07-01T05:49:11;10.00;;;6.00;;
3647;SDS011;1840;48.892;15.312;2022-07-01T05:51:45;9.60;;;5.27;;
3647;SDS011;1840;48.892;15.312;2022-07-01T05:54:13;10.53;;;5.43;;
3647;SDS011;1840;48.892;15.312;2022-07-01T05:56:41;14.10;;;5.07;;
3647;SDS011;1840;48.892;15.312;2022-07-01T05:59:09;10.40;;;5.13;;
3647;SDS011;1840;48.892;15.312;2022-07-01T06:01:37;8.13;;;5.47;;
3647;SDS011;1840;48.892;15.312;2022-07-01T06:04:05;11.10;;;4.93;;
3647;SDS011;1840;48.892;15.312;2022-07-01T06:06:34;8.43;;;5.27;;
3647;SDS011;1840;48.892;15.312;2022-07-01T06:09:04;8.67;;;4.63;;
3647;SDS011;1840;48.892;15.312;2022-07-01T06:11:32;9.23;;;4.53;;
3647;SDS011;1840;48.892;15.312;2022-07-01T06:14:00;11.20;;;4.30;;
3647;SDS011;1840;48.892;15.312;2022-07-01T06:16:28;8.43;;;4.63;;
3647;SDS011;1840;48.892;15.312;2022-07-01T06:18:57;7.73;;;4.63;;
3647;SDS011;1840;48.892;15.312;2022-07-01T06:21:25;5.40;;;3.40;;
3647;SDS011;1840;48.892;15.312;2022-07-01T06:23:53;8.43;;;3.83;;
3647;SDS011;1840;48.892;15.312;2022-07-01T06:26:23;6.30;;;3.60;;
3647;SDS011;1840;48.892;15.312;2022-07-01T06:28:51;6.40;;;3.50;;
3647;SDS011;1840;48.892;15.312;2022-07-01T06:31:19;5.80;;;3.90;;
3647;SDS011;1840;48.892;15.312;2022-07-01T06:33:50;6.20;;;3.83;;
3647;SDS011;1840;48.892;15.312;2022-07-01T06:36:18;9.33;;;5.00;;
3647;SDS011;1840;48.892;15.312;2022-07-01T06:38:46;8.47;;;3.40;;
3647;SDS011;1840;48.892;15.312;2022-07-01T06:41:14;6.10;;;3.90;;
3647;SDS011;1840;48.892;15.312;2022-07-01T06:43:57;7.00;;;4.40;;
3647;SDS011;1840;48.892;15.312;2022-07-01T06:46:26;5.40;;;4.00;;
3647;SDS011;1840;48.892;15.312;2022-07-01T06:48:55;8.40;;;3.80;;
3647;SDS011;1840;48.892;15.312;2022-07-01T06:51:24;6.47;;;4.00;;
3647;SDS011;1840;48.892;15.312;2022-07-01T06:53:53;8.13;;;4.10;;
3647;SDS011;1840;48.892;15.312;2022-07-01T06:56:21;7.60;;;5.13;;
3647;SDS011;1840;48.892;15.312;2022-07-01T06:58:49;7.10;;;4.87;;
3647;SDS011;1840;48.892;15.312;2022-07-01T07:01:18;6.80;;;5.00;;
3647;SDS011;1840;48.892;15.312;2022-07-01T07:03:46;7.50;;;5.60;;
3647;SDS011;1840;48.892;15.312;2022-07-01T07:06:15;11.20;;;6.07;;
3647;SDS011;1840;48.892;15.312;2022-07-01T07:08:43;12.10;;;5.33;;
3647;SDS011;1840;48.892;15.312;2022-07-01T07:11:11;10.57;;;5.90;;
3647;SDS011;1840;48.892;15.312;2022-07-01T07:13:41;10.27;;;6.00;;
3647;SDS011;1840;48.892;15.312;2022-07-01T07:16:09;9.57;;;6.17;;
3647;SDS011;1840;48.892;15.312;2022-07-01T07:18:39;8.03;;;6.33;;
3647;SDS011;1840;48.892;15.312;2022-07-01T07:21:08;9.20;;;6.17;;
3647;SDS011;1840;48.892;15.312;2022-07-01T07:23:36;9.73;;;5.80;;
3647;SDS011;1840;48.892;15.312;2022-07-01T07:26:04;8.20;;;6.43;;
3647;SDS011;1840;48.892;15.312;2022-07-01T07:28:32;11.77;;;7.57;;
3647;SDS011;1840;48.892;15.312;2022-07-01T07:31:00;13.57;;;8.20;;
3647;SDS011;1840;48.892;15.312;2022-07-01T07:33:28;8.87;;;6.67;;
3647;SDS011;1840;48.892;15.312;2022-07-01T07:35:58;17.47;;;8.17;;
3647;SDS011;1840;48.892;15.312;2022-07-01T07:38:27;18.10;;;8.17;;
3647;SDS011;1840;48.892;15.312;2022-07-01T07:40:58;13.70;;;9.03;;
3647;SDS011;1840;48.892;15.312;2022-07-01T07:43:30;12.07;;;8.20;;
3647;SDS011;1840;48.892;15.312;2022-07-01T07:45:58;9.07;;;8.10;;
3647;SDS011;1840;48.892;15.312;2022-07-01T07:48:26;11.10;;;8.20;;
3647;SDS011;1840;48.892;15.312;2022-07-01T07:50:54;12.57;;;8.10;;
3647;SDS011;1840;48.892;15.312;2022-07-01T07:53:24;12.00;;;8.30;;
3647;SDS011;1840;48.892;15.312;2022-07-01T07:55:52;13.67;;;9.07;;
3647;SDS011;1840;48.892;15.312;2022-07-01T07:58:20;14.03;;;8.90;;
3647;SDS011;1840;48.892;15.312;2022-07-01T08:00:48;11.90;;;8.47;;
3647;SDS011;1840;48.892;15.312;2022-07-01T08:03:16;10.53;;;8.70;;
3647;SDS011;1840;48.892;15.312;2022-07-01T08:05:44;11.77;;;8.90;;
3647;SDS011;1840;48.892;15.312;2022-07-01T08:08:12;10.87;;;9.10;;
3647;SDS011;1840;48.892;15.312;2022-07-01T08:10:46;13.90;;;8.83;;
3647;SDS011;1840;48.892;15.312;2022-07-01T08:13:14;12.73;;;8.77;;
3647;SDS011;1840;48.892;15.312;2022-07-01T08:15:42;14.93;;;9.13;;
3647;SDS011;1840;48.892;15.312;2022-07-01T08:18:10;14.73;;;10.00;;
3647;SDS011;1840;48.892;15.312;2022-07-01T08:20:38;14.90;;;9.43;;
3647;SDS011;1840;48.892;15.312;2022-07-01T08:23:06;13.70;;;8.67;;
3647;SDS011;1840;48.892;15.312;2022-07-01T08:25:34;14.47;;;10.00;;
3647;SDS011;1840;48.892;15.312;2022-07-01T08:28:04;16.13;;;9.93;;
3647;SDS011;1840;48.892;15.312;2022-07-01T08:30:32;14.33;;;9.70;;
3647;SDS011;1840;48.892;15.312;2022-07-01T08:33:00;17.60;;;10.47;;
3647;SDS011;1840;48.892;15.312;2022-07-01T08:35:28;13.33;;;10.40;;
3647;SDS011;1840;48.892;15.312;2022-07-01T08:37:57;14.43;;;10.20;;
3647;SDS011;1840;48.892;15.312;2022-07-01T08:40:25;12.00;;;9.40;;
3647;SDS011;1840;48.892;15.312;2022-07-01T08:42:57;12.70;;;10.27;;
3647;SDS011;1840;48.892;15.312;2022-07-01T08:45:28;12.57;;;10.60;;
3647;SDS011;1840;48.892;15.312;2022-07-01T08:47:58;18.70;;;11.00;;
3647;SDS011;1840;48.892;15.312;2022-07-01T08:50:28;17.93;;;10.30;;
3647;SDS011;1840;48.892;15.312;2022-07-01T08:52:57;11.60;;;9.43;;
3647;SDS011;1840;48.892;15.312;2022-07-01T08:55:26;12.80;;;9.27;;
3647;SDS011;1840;48.892;15.312;2022-07-01T08:57:54;18.67;;;9.80;;
3647;SDS011;1840;48.892;15.312;2022-07-01T09:00:30;12.80;;;9.10;;
3647;SDS011;1840;48.892;15.312;2022-07-01T09:02:59;14.43;;;9.93;;
3647;SDS011;1840;48.892;15.312;2022-07-01T09:05:28;12.03;;;9.00;;
3647;SDS011;1840;48.892;15.312;2022-07-01T09:07:58;14.63;;;9.97;;
3647;SDS011;1840;48.892;15.312;2022-07-01T09:10:27;14.50;;;9.77;;
3647;SDS011;1840;48.892;15.312;2022-07-01T09:13:03;12.57;;;10.57;;
3647;SDS011;1840;48.892;15.312;2022-07-01T09:15:35;17.03;;;11.83;;
3647;SDS011;1840;48.892;15.312;2022-07-01T09:18:05;18.13;;;11.77;;
3647;SDS011;1840;48.892;15.312;2022-07-01T09:20:38;13.30;;;10.60;;
3647;SDS011;1840;48.892;15.312;2022-07-01T09:23:08;12.83;;;10.80;;
3647;SDS011;1840;48.892;15.312;2022-07-01T09:25:39;18.00;;;10.77;;
3647;SDS011;1840;48.892;15.312;2022-07-01T09:28:19;14.83;;;11.70;;
3647;SDS011;1840;48.892;15.312;2022-07-01T09:30:50;12.90;;;10.87;;
3647;SDS011;1840;48.892;15.312;2022-07-01T09:33:19;16.03;;;11.13;;
3647;SDS011;1840;48.892;15.312;2022-07-01T09:35:50;15.17;;;10.90;;
3647;SDS011;1840;48.892;15.312;2022-07-01T09:38:19;18.17;;;12.33;;
3647;SDS011;1840;48.892;15.312;2022-07-01T09:40:59;17.30;;;11.80;;
3647;SDS011;1840;48.892;15.312;2022-07-01T09:43:29;14.80;;;11.47;;
3647;SDS011;1840;48.892;15.312;2022-07-01T09:46:02;21.83;;;10.93;;
3647;SDS011;1840;48.892;15.312;2022-07-01T09:48:44;18.73;;;9.50;;
3647;SDS011;1840;48.892;15.312;2022-07-01T09:51:13;13.20;;;9.57;;
3647;SDS011;1840;48.892;15.312;2022-07-01T09:53:43;11.77;;;9.23;;
3647;SDS011;1840;48.892;15.312;2022-07-01T09:56:11;13.60;;;9.00;;
3647;SDS011;1840;48.892;15.312;2022-07-01T09:58:40;11.87;;;8.60;;
3647;SDS011;1840;48.892;15.312;2022-07-01T10:01:11;15.50;;;9.05;;
3647;SDS011;1840;48.892;15.312;2022-07-01T10:03:40;10.77;;;9.00;;
3647;SDS011;1840;48.892;15.312;2022-07-01T10:06:24;11.10;;;8.80;;
3647;SDS011;1840;48.892;15.312;2022-07-01T10:15:11;15.27;;;7.50;;
3647;SDS011;1840;48.892;15.312;2022-07-01T10:17:45;9.97;;;7.70;;
3647;SDS011;1840;48.892;15.312;2022-07-01T10:20:15;10.50;;;8.30;;
3647;SDS011;1840;48.892;15.312;2022-07-01T10:22:49;13.27;;;8.60;;
3647;SDS011;1840;48.892;15.312;2022-07-01T10:25:33;13.73;;;8.50;;
3647;SDS011;1840;48.892;15.312;2022-07-01T10:28:15;12.10;;;8.67;;
3647;SDS011;1840;48.892;15.312;2022-07-01T10:30:53;17.07;;;8.20;;
3647;SDS011;1840;48.892;15.312;2022-07-01T10:33:31;18.00;;;8.53;;
3647;SDS011;1840;48.892;15.312;2022-07-01T10:36:11;11.27;;;7.67;;
3647;SDS011;1840;48.892;15.312;2022-07-01T10:41:56;18.27;;;9.50;;
3647;SDS011;1840;48.892;15.312;2022-07-01T10:45:01;17.40;;;10.10;;
3647;SDS011;1840;48.892;15.312;2022-07-01T10:47:36;15.00;;;9.30;;
3647;SDS011;1840;48.892;15.312;2022-07-01T10:50:07;14.83;;;9.93;;
3647;SDS011;1840;48.892;15.312;2022-07-01T10:52:36;16.70;;;10.70;;
3647;SDS011;1840;48.892;15.312;2022-07-01T10:55:05;17.03;;;10.20;;
3647;SDS011;1840;48.892;15.312;2022-07-01T10:57:37;11.80;;;9.00;;
3647;SDS011;1840;48.892;15.312;2022-07-01T11:00:26;16.30;;;8.87;;
3647;SDS011;1840;48.892;15.312;2022-07-01T11:03:06;13.80;;;8.60;;
3647;SDS011;1840;48.892;15.312;2022-07-01T11:05:57;10.90;;;8.33;;
3647;SDS011;1840;48.892;15.312;2022-07-01T11:08:26;14.53;;;9.60;;
3647;SDS011;1840;48.892;15.312;2022-07-01T11:10:57;14.30;;;9.83;;
3647;SDS011;1840;48.892;15.312;2022-07-01T11:13:29;12.67;;;9.00;;
3647;SDS011;1840;48.892;15.312;2022-07-01T11:15:57;14.27;;;8.97;;
3647;SDS011;1840;48.892;15.312;2022-07-01T11:18:26;10.97;;;8.80;;
3647;SDS011;1840;48.892;15.312;2022-07-01T11:21:06;10.40;;;9.03;;
3647;SDS011;1840;48.892;15.312;2022-07-01T11:23:36;16.37;;;9.20;;
3647;SDS011;1840;48.892;15.312;2022-07-01T11:26:07;13.57;;;8.67;;
3647;SDS011;1840;48.892;15.312;2022-07-01T11:28:50;13.63;;;9.63;;
3647;SDS011;1840;48.892;15.312;2022-07-01T11:31:31;13.90;;;9.20;;
3647;SDS011;1840;48.892;15.312;2022-07-01T11:34:00;13.57;;;8.53;;
3647;SDS011;1840;48.892;15.312;2022-07-01T11:36:30;16.30;;;9.63;;
3647;SDS011;1840;48.892;15.312;2022-07-01T11:39:16;16.60;;;9.83;;
3647;SDS011;1840;48.892;15.312;2022-07-01T11:41:56;14.10;;;9.83;;
3647;SDS011;1840;48.892;15.312;2022-07-01T11:44:29;13.00;;;10.00;;
3647;SDS011;1840;48.892;15.312;2022-07-01T11:46:58;14.67;;;10.03;;
3647;SDS011;1840;48.892;15.312;2022-07-01T11:49:27;14.83;;;10.70;;
3647;SDS011;1840;48.892;15.312;2022-07-01T11:51:57;13.80;;;10.33;;
3647;SDS011;1840;48.892;15.312;2022-07-01T11:54:27;13.20;;;10.20;;
3647;SDS011;1840;48.892;15.312;2022-07-01T11:56:58;15.77;;;10.93;;
3647;SDS011;1840;48.892;15.312;2022-07-01T11:59:35;16.70;;;12.33;;
3647;SDS011;1840;48.892;15.312;2022-07-01T12:02:05;20.27;;;13.10;;
3647;SDS011;1840;48.892;15.312;2022-07-01T12:04:35;19.70;;;12.90;;
3647;SDS011;1840;48.892;15.312;2022-07-01T12:07:04;15.77;;;12.50;;
3647;SDS011;1840;48.892;15.312;2022-07-01T12:09:33;18.60;;;12.90;;
3647;SDS011;1840;48.892;15.312;2022-07-01T12:12:02;22.03;;;16.07;;
3647;SDS011;1840;48.892;15.312;2022-07-01T12:14:31;23.67;;;18.20;;
3647;SDS011;1840;48.892;15.312;2022-07-01T12:17:02;28.40;;;16.80;;
3647;SDS011;1840;48.892;15.312;2022-07-01T12:19:37;27.50;;;16.87;;
3647;SDS011;1840;48.892;15.312;2022-07-01T12:22:11;24.70;;;15.93;;
3647;SDS011;1840;48.892;15.312;2022-07-01T12:24:42;20.27;;;13.83;;
3647;SDS011;1840;48.892;15.312;2022-07-01T12:27:10;20.03;;;12.60;;
3647;SDS011;1840;48.892;15.312;2022-07-01T12:29:49;18.20;;;11.47;;
3647;SDS011;1840;48.892;15.312;2022-07-01T12:32:19;17.10;;;10.93;;
3647;SDS011;1840;48.892;15.312;2022-07-01T12:34:50;13.00;;;10.20;;
3647;SDS011;1840;48.892;15.312;2022-07-01T12:37:28;17.30;;;8.63;;
3647;SDS011;1840;48.892;15.312;2022-07-01T12:39:58;14.40;;;9.00;;
3647;SDS011;1840;48.892;15.312;2022-07-01T12:42:28;15.87;;;9.80;;
3647;SDS011;1840;48.892;15.312;2022-07-01T12:44:58;12.80;;;10.27;;
3647;SDS011;1840;48.892;15.312;2022-07-01T12:47:29;18.53;;;10.10;;
3647;SDS011;1840;48.892;15.312;2022-07-01T12:50:08;14.40;;;8.37;;
3647;SDS011;1840;48.892;15.312;2022-07-01T12:52:40;15.03;;;9.30;;
3647;SDS011;1840;48.892;15.312;2022-07-01T12:55:14;12.33;;;8.73;;
3647;SDS011;1840;48.892;15.312;2022-07-01T12:57:43;12.53;;;8.30;;
3647;SDS011;1840;48.892;15.312;2022-07-01T13:00:13;11.90;;;8.03;;
3647;SDS011;1840;48.892;15.312;2022-07-01T13:02:42;15.37;;;8.47;;
3647;SDS011;1840;48.892;15.312;2022-07-01T13:05:11;12.70;;;7.67;;
3647;SDS011;1840;48.892;15.312;2022-07-01T13:07:41;17.70;;;9.07;;
3647;SDS011;1840;48.892;15.312;2022-07-01T13:10:11;12.50;;;8.00;;
3647;SDS011;1840;48.892;15.312;2022-07-01T13:12:47;11.87;;;7.07;;
3647;SDS011;1840;48.892;15.312;2022-07-01T13:15:33;10.57;;;6.77;;
3647;SDS011;1840;48.892;15.312;2022-07-01T13:18:02;15.90;;;6.10;;
3647;SDS011;1840;48.892;15.312;2022-07-01T13:20:31;10.90;;;5.90;;
3647;SDS011;1840;48.892;15.312;2022-07-01T13:23:01;13.93;;;5.87;;
3647;SDS011;1840;48.892;15.312;2022-07-01T13:25:29;16.67;;;6.00;;
3647;SDS011;1840;48.892;15.312;2022-07-01T13:27:57;9.13;;;5.60;;
3647;SDS011;1840;48.892;15.312;2022-07-01T13:30:26;9.53;;;5.90;;
3647;SDS011;1840;48.892;15.312;2022-07-01T13:32:54;9.77;;;5.83;;
3647;SDS011;1840;48.892;15.312;2022-07-01T13:35:23;12.33;;;6.03;;
3647;SDS011;1840;48.892;15.312;2022-07-01T13:37:51;11.60;;;5.70;;
3647;SDS011;1840;48.892;15.312;2022-07-01T13:40:21;8.40;;;5.50;;
3647;SDS011;1840;48.892;15.312;2022-07-01T13:42:49;8.57;;;5.33;;
3647;SDS011;1840;48.892;15.312;2022-07-01T13:45:18;8.60;;;4.90;;
3647;SDS011;1840;48.892;15.312;2022-07-01T13:47:46;11.13;;;5.47;;
3647;SDS011;1840;48.892;15.312;2022-07-01T13:50:14;11.10;;;5.60;;
3647;SDS011;1840;48.892;15.312;2022-07-01T13:52:45;12.73;;;5.90;;
3647;SDS011;1840;48.892;15.312;2022-07-01T13:55:14;16.37;;;6.63;;
3647;SDS011;1840;48.892;15.312;2022-07-01T13:57:44;9.23;;;5.43;;
3647;SDS011;1840;48.892;15.312;2022-07-01T14:00:12;11.60;;;4.93;;
3647;SDS011;1840;48.892;15.312;2022-07-01T14:02:41;10.40;;;5.43;;
3647;SDS011;1840;48.892;15.312;2022-07-01T14:05:09;8.47;;;4.77;;
3647;SDS011;1840;48.892;15.312;2022-07-01T14:07:37;6.80;;;4.60;;
3647;SDS011;1840;48.892;15.312;2022-07-01T14:10:06;11.73;;;5.07;;
3647;SDS011;1840;48.892;15.312;2022-07-01T14:12:35;7.77;;;4.50;;
3647;SDS011;1840;48.892;15.312;2022-07-01T14:15:06;6.83;;;4.03;;
3647;SDS011;1840;48.892;15.312;2022-07-01T14:17:35;11.50;;;5.20;;
3647;SDS011;1840;48.892;15.312;2022-07-01T14:20:04;6.47;;;4.27;;
3647;SDS011;1840;48.892;15.312;2022-07-01T14:22:32;8.67;;;4.90;;
3647;SDS011;1840;48.892;15.312;2022-07-01T14:25:00;13.10;;;5.00;;
3647;SDS011;1840;48.892;15.312;2022-07-01T14:27:29;5.93;;;4.40;;
3647;SDS011;1840;48.892;15.312;2022-07-01T14:29:57;7.20;;;4.00;;
3647;SDS011;1840;48.892;15.312;2022-07-01T14:32:27;14.03;;;4.67;;
3647;SDS011;1840;48.892;15.312;2022-07-01T14:34:56;10.10;;;5.13;;
3647;SDS011;1840;48.892;15.312;2022-07-01T14:37:24;12.70;;;4.73;;
3647;SDS011;1840;48.892;15.312;2022-07-01T14:39:52;7.50;;;4.33;;
3647;SDS011;1840;48.892;15.312;2022-07-01T14:42:23;6.10;;;3.93;;
3647;SDS011;1840;48.892;15.312;2022-07-01T14:44:52;4.93;;;3.10;;
3647;SDS011;1840;48.892;15.312;2022-07-01T14:47:20;5.03;;;3.37;;
3647;SDS011;1840;48.892;15.312;2022-07-01T14:49:50;8.00;;;3.37;;
3647;SDS011;1840;48.892;15.312;2022-07-01T14:52:20;5.57;;;3.50;;
3647;SDS011;1840;48.892;15.312;2022-07-01T14:54:48;7.80;;;3.40;;
3647;SDS011;1840;48.892;15.312;2022-07-01T14:57:17;7.33;;;3.00;;
3647;SDS011;1840;48.892;15.312;2022-07-01T14:59:45;6.30;;;3.53;;
3647;SDS011;1840;48.892;15.312;2022-07-01T15:02:13;5.63;;;3.00;;
3647;SDS011;1840;48.892;15.312;2022-07-01T15:04:42;8.97;;;3.27;;
3647;SDS011;1840;48.892;15.312;2022-07-01T15:07:11;5.87;;;3.37;;
3647;SDS011;1840;48.892;15.312;2022-07-01T15:09:40;5.90;;;3.23;;